Accokeek, Maryland
Current Conditions -  °F | °C
As of 1:58 PM on Friday 28 Nov 2014 (Local Time) from KDAA Reporting Station
Broken Clouds Broken Clouds  
Wind Chill: 31°   Ceiling: 4700
Heat Index: 38°   Visibility: 10mi
Dew Point: 19°   Wind: 13mph
Humidity: 46%   Direction: 310°NW
Pressure: 30.28"   Gusts: NA
Location:  38.67°N, 77.03°W
Report Text: KDAA 281858Z AUTO 31011KT 10SM BKN047 04/M07 A3028 RMK AO2 SLP258 T00361070
Loading
Personal Weather Stations






























Interactive Weather Map New forecast layout! Learn more

10-Day Weather Forecast

Advertisements
Track Severe Weather on mobile